Time;durP1;ratioP1;P1;durP2;ratioP2;P2;SDS_P1;SDS_P2;PMS_P1;PMS_P2;Temp;Humidity;BMP_temperature;BMP_pressure;BME280_temperature;BME280_humidity;BME280_pressure;Samples;Min_cycle;Max_cycle;Signal;HPM_P1;HPM_P2
2023/04/22 00:01:25;;;;;;;2.33;2.13;;;;;;;;;;10135424;23;20083;-85
2023/04/22 00:06:30;;;;;;;2.55;2.33;;;;;;;;;;10089618;29;20189;-84
2023/04/22 00:11:36;;;;;;;3.17;2.55;;;;;;;;;;10158699;29;20056;-87
2023/04/22 00:16:41;;;;;;;3.03;2.35;;;;;;;;;;10146706;29;20156;-87
2023/04/22 00:21:45;;;;;;;2.45;1.70;;;;;;;;;;10144036;29;20083;-92
2023/04/22 00:26:49;;;;;;;1.80;1.67;;;;;;;;;;10169601;29;20052;-87
2023/04/22 00:31:54;;;;;;;2.28;1.73;;;;;;;;;;10149930;29;20484;-90
2023/04/22 00:37:00;;;;;;;2.10;1.90;;;;;;;;;;10144540;29;20048;-88
2023/04/22 00:42:06;;;;;;;1.77;1.63;;;;;;;;;;10146939;29;20509;-85
2023/04/22 00:47:09;;;;;;;1.95;1.73;;;;;;;;;;10141960;29;20054;-85
2023/04/22 00:52:13;;;;;;;2.75;2.30;;;;;;;;;;10159268;29;20131;-85
2023/04/22 00:57:20;;;;;;;2.70;2.08;;;;;;;;;;10140717;29;20053;-84
2023/04/22 01:02:24;;;;;;;1.80;1.63;;;;;;;;;;10141250;29;20170;-84
2023/04/22 01:07:28;;;;;;;1.70;1.55;;;;;;;;;;10141562;29;20714;-85
2023/04/22 01:12:34;;;;;;;2.95;1.63;;;;;;;;;;10127806;29;20051;-85
2023/04/22 01:17:39;;;;;;;1.75;1.60;;;;;;;;;;10158162;29;20067;-85
2023/04/22 01:22:45;;;;;;;2.75;1.75;;;;;;;;;;10140936;29;20107;-84
2023/04/22 01:27:50;;;;;;;1.85;1.42;;;;;;;;;;10135092;29;20167;-84
2023/04/22 01:32:54;;;;;;;2.20;1.55;;;;;;;;;;10145662;29;20056;-87
2023/04/22 01:38:00;;;;;;;2.42;1.55;;;;;;;;;;10136192;29;20055;-88
2023/04/22 01:43:06;;;;;;;1.20;1.10;;;;;;;;;;10146869;29;20052;-87
2023/04/22 01:48:09;;;;;;;1.85;1.35;;;;;;;;;;10146087;29;20048;-86
2023/04/22 01:53:13;;;;;;;1.45;1.35;;;;;;;;;;10154302;29;20139;-87
2023/04/22 01:58:18;;;;;;;1.80;1.50;;;;;;;;;;10139386;29;20061;-90
2023/04/22 02:03:22;;;;;;;1.90;1.55;;;;;;;;;;10152306;29;20076;-86
2023/04/22 02:08:26;;;;;;;1.90;1.25;;;;;;;;;;10142527;29;20044;-87
2023/04/22 02:13:41;;;;;;;1.30;1.20;;;;;;;;;;10130710;29;20056;-85
2023/04/22 02:18:44;;;;;;;1.40;1.30;;;;;;;;;;10139054;29;20059;-85
2023/04/22 02:23:48;;;;;;;1.63;1.40;;;;;;;;;;10122310;29;20063;-85
2023/04/22 02:28:54;;;;;;;1.30;1.20;;;;;;;;;;10124198;29;20104;-84
2023/04/22 02:33:58;;;;;;;1.40;1.30;;;;;;;;;;10155626;29;20040;-87
2023/04/22 02:39:03;;;;;;;2.25;1.50;;;;;;;;;;10152041;29;20051;-88
2023/04/22 02:44:08;;;;;;;1.65;1.45;;;;;;;;;;10141750;29;20058;-89
2023/04/22 02:49:14;;;;;;;2.10;1.48;;;;;;;;;;10138903;29;20040;-89
2023/04/22 02:54:17;;;;;;;1.80;1.60;;;;;;;;;;10135386;29;20056;-87
2023/04/22 02:59:22;;;;;;;2.53;1.77;;;;;;;;;;10140845;29;20405;-87
2023/04/22 03:04:26;;;;;;;2.03;1.60;;;;;;;;;;10146286;29;20075;-87
2023/04/22 03:09:30;;;;;;;1.83;1.60;;;;;;;;;;10129993;29;20041;-85
2023/04/22 03:14:35;;;;;;;1.75;1.55;;;;;;;;;;10139458;29;20179;-84
2023/04/22 03:19:38;;;;;;;1.63;1.30;;;;;;;;;;10139087;29;20056;-85
2023/04/22 03:24:42;;;;;;;1.83;1.40;;;;;;;;;;10143304;29;20111;-85
2023/04/22 03:29:48;;;;;;;1.50;1.30;;;;;;;;;;10137518;29;20108;-85
2023/04/22 03:34:52;;;;;;;1.40;1.20;;;;;;;;;;10131970;29;20048;-85
2023/04/22 03:39:56;;;;;;;2.10;1.42;;;;;;;;;;10127863;29;20529;-85
2023/04/22 03:45:01;;;;;;;2.25;1.58;;;;;;;;;;10137844;29;20052;-85
2023/04/22 03:50:11;;;;;;;2.58;1.88;;;;;;;;;;10132599;29;20071;-85
2023/04/22 03:55:15;;;;;;;1.88;1.60;;;;;;;;;;10136865;29;20572;-84
2023/04/22 04:00:20;;;;;;;1.70;1.50;;;;;;;;;;10137428;29;20123;-84
2023/04/22 04:05:34;;;;;;;2.97;2.00;;;;;;;;;;10134815;29;20430;-84
2023/04/22 04:10:38;;;;;;;2.30;1.73;;;;;;;;;;10138470;29;20059;-85
2023/04/22 04:15:43;;;;;;;2.80;1.80;;;;;;;;;;10144656;29;20076;-84
2023/04/22 04:20:47;;;;;;;2.08;1.75;;;;;;;;;;10143936;29;20036;-84
2023/04/22 04:25:54;;;;;;;1.60;1.50;;;;;;;;;;10141575;29;20052;-84
2023/04/22 04:30:59;;;;;;;3.05;2.08;;;;;;;;;;10141478;29;20040;-84
2023/04/22 04:36:03;;;;;;;2.15;1.95;;;;;;;;;;10142555;29;20048;-84
2023/04/22 04:41:11;;;;;;;;;;;;;;;;;;10143850;29;20040;-83
2023/04/22 04:46:16;;;;;;;1.43;1.30;;;;;;;;;;10142067;29;19930;-84
2023/04/22 04:51:21;;;;;;;2.15;1.65;;;;;;;;;;10139149;29;20053;-85
2023/04/22 04:56:30;;;;;;;1.75;1.48;;;;;;;;;;10142157;29;20779;-84
2023/04/22 05:01:35;;;;;;;1.60;1.50;;;;;;;;;;10140463;29;20040;-85
2023/04/22 05:06:43;;;;;;;1.80;1.60;;;;;;;;;;10141743;29;20091;-85
2023/04/22 05:11:49;;;;;;;1.60;1.45;;;;;;;;;;10141360;29;20485;-84
2023/04/22 05:16:57;;;;;;;2.20;1.75;;;;;;;;;;10140725;29;20052;-85
2023/04/22 05:22:01;;;;;;;2.70;1.75;;;;;;;;;;10141999;29;20055;-84
2023/04/22 05:27:05;;;;;;;1.90;1.50;;;;;;;;;;10141191;29;20052;-84
2023/04/22 05:32:11;;;;;;;1.65;1.40;;;;;;;;;;10140467;29;20052;-85
2023/04/22 05:37:15;;;;;;;1.60;1.40;;;;;;;;;;10140629;29;20123;-84
2023/04/22 05:42:19;;;;;;;2.80;1.85;;;;;;;;;;10141019;29;20056;-84
2023/04/22 05:47:24;;;;;;;2.38;2.03;;;;;;;;;;10153749;29;20744;-84
2023/04/22 05:52:28;;;;;;;2.20;1.60;;;;;;;;;;10156257;29;20062;-84
2023/04/22 05:57:38;;;;;;;1.30;1.20;;;;;;;;;;10138691;29;20056;-86
2023/04/22 06:02:51;;;;;;;1.30;1.20;;;;;;;;;;10161089;23;20047;-88
2023/04/22 06:07:55;;;;;;;1.63;1.30;;;;;;;;;;10124788;29;20064;-87
2023/04/22 06:12:58;;;;;;;2.53;1.38;;;;;;;;;;10142519;29;20052;-88
2023/04/22 06:18:03;;;;;;;3.42;1.60;;;;;;;;;;10112020;29;20068;-87
2023/04/22 06:23:07;;;;;;;1.55;1.40;;;;;;;;;;10126940;29;20147;-87
2023/04/22 06:28:10;;;;;;;1.77;1.30;;;;;;;;;;10110654;29;20059;-88
2023/04/22 06:33:16;;;;;;;1.40;1.30;;;;;;;;;;10116424;29;20053;-88
2023/04/22 06:38:19;;;;;;;1.40;1.08;;;;;;;;;;10107182;29;20055;-88
2023/04/22 06:43:51;;;;;;;0.98;0.88;;;;;;;;;;10107613;29;20060;-89
2023/04/22 06:49:25;;;;;;;2.45;1.38;;;;;;;;;;10106761;29;20059;-87
2023/04/22 06:54:47;;;;;;;1.65;1.40;;;;;;;;;;10122928;29;20548;-88
2023/04/22 06:59:51;;;;;;;0.77;0.77;;;;;;;;;;10120658;29;20648;-88
2023/04/22 07:04:56;;;;;;;1.48;0.93;;;;;;;;;;10125488;29;20112;-88
2023/04/22 07:10:00;;;;;;;2.20;1.27;;;;;;;;;;10120517;29;20413;-88
2023/04/22 07:15:10;;;;;;;2.25;0.80;;;;;;;;;;10109614;29;20586;-88
2023/04/22 07:20:15;;;;;;;2.97;0.70;;;;;;;;;;10133540;29;20045;-88
2023/04/22 07:25:19;;;;;;;1.25;1.00;;;;;;;;;;10109110;29;20060;-88
2023/04/22 07:30:22;;;;;;;1.58;1.10;;;;;;;;;;10111620;29;20048;-88
2023/04/22 07:35:28;;;;;;;1.63;1.20;;;;;;;;;;10126629;29;20064;-88
2023/04/22 07:40:31;;;;;;;1.02;0.75;;;;;;;;;;10126106;29;20067;-88
2023/04/22 07:45:35;;;;;;;1.40;1.00;;;;;;;;;;10115630;29;20060;-88
2023/04/22 07:50:40;;;;;;;0.98;0.70;;;;;;;;;;10145542;29;20052;-87
2023/04/22 07:55:43;;;;;;;2.13;0.90;;;;;;;;;;10116197;29;20127;-87
2023/04/22 08:00:46;;;;;;;1.10;0.70;;;;;;;;;;10134755;29;20088;-87
2023/04/22 08:05:51;;;;;;;1.33;1.20;;;;;;;;;;10130878;29;20104;-88
2023/04/22 08:10:55;;;;;;;1.90;1.10;;;;;;;;;;10150316;29;20143;-87
2023/04/22 08:16:01;;;;;;;1.63;1.00;;;;;;;;;;10121268;29;20053;-88
2023/04/22 08:21:06;;;;;;;0.52;0.50;;;;;;;;;;10129250;29;20045;-88
2023/04/22 08:26:13;;;;;;;1.23;0.70;;;;;;;;;;10142051;29;20054;-88
2023/04/22 08:31:17;;;;;;;1.02;0.60;;;;;;;;;;10116563;29;20574;-87
2023/04/22 08:36:24;;;;;;;0.68;0.60;;;;;;;;;;10131513;29;20518;-88
2023/04/22 08:41:28;;;;;;;0.85;0.40;;;;;;;;;;10115582;29;20052;-88
2023/04/22 08:46:32;;;;;;;1.38;0.82;;;;;;;;;;10135114;29;20394;-87
2023/04/22 08:51:37;;;;;;;0.68;0.60;;;;;;;;;;10100642;29;20593;-87
2023/04/22 08:56:43;;;;;;;0.50;0.50;;;;;;;;;;10147302;29;20091;-88
2023/04/22 09:01:48;;;;;;;;;;;;;;;;;;10134843;29;20299;-87
2023/04/22 09:06:53;;;;;;;0.83;0.60;;;;;;;;;;10124927;29;19924;-88
2023/04/22 09:11:57;;;;;;;1.40;0.80;;;;;;;;;;10142854;29;20056;-87
2023/04/22 09:17:02;;;;;;;1.60;0.52;;;;;;;;;;10135106;29;20529;-87
2023/04/22 09:22:12;;;;;;;1.00;0.60;;;;;;;;;;10150385;29;20052;-88
2023/04/22 09:27:17;;;;;;;1.52;0.90;;;;;;;;;;10140276;29;20059;-88
2023/04/22 09:32:23;;;;;;;1.08;0.80;;;;;;;;;;10123896;29;20474;-87
2023/04/22 09:37:29;;;;;;;2.65;0.63;;;;;;;;;;10132569;29;20052;-87
2023/04/22 09:42:49;;;;;;;0.70;0.70;;;;;;;;;;10118092;29;20136;-87
2023/04/22 09:47:53;;;;;;;0.40;0.40;;;;;;;;;;10116318;29;20060;-86
2023/04/22 09:53:01;;;;;;;1.13;0.70;;;;;;;;;;10120240;29;20147;-87
2023/04/22 09:58:08;;;;;;;1.58;0.88;;;;;;;;;;10124701;29;20072;-87
2023/04/22 10:03:11;;;;;;;1.38;0.95;;;;;;;;;;10126182;29;20071;-87
2023/04/22 10:08:17;;;;;;;1.63;0.75;;;;;;;;;;10128552;29;20057;-87
2023/04/22 10:13:21;;;;;;;1.60;1.30;;;;;;;;;;10129368;29;20053;-86
2023/04/22 10:18:26;;;;;;;1.63;0.80;;;;;;;;;;10127048;29;20048;-88
2023/04/22 10:23:33;;;;;;;1.20;0.90;;;;;;;;;;10118227;29;20550;-88
2023/04/22 10:28:43;;;;;;;1.52;0.90;;;;;;;;;;10125359;29;20052;-87
2023/04/22 10:33:46;;;;;;;2.58;0.98;;;;;;;;;;10127985;29;20049;-88
2023/04/22 10:39:17;;;;;;;1.25;0.82;;;;;;;;;;10111033;29;20083;-87
2023/04/22 10:44:21;;;;;;;1.88;0.80;;;;;;;;;;10127795;29;20104;-87
2023/04/22 10:49:26;;;;;;;0.80;0.73;;;;;;;;;;10126907;29;20066;-87
2023/04/22 10:55:00;;;;;;;0.70;0.70;;;;;;;;;;10109992;29;20056;-87
2023/04/22 11:00:23;;;;;;;1.25;0.70;;;;;;;;;;10125410;29;20585;-87
2023/04/22 11:05:28;;;;;;;1.20;0.70;;;;;;;;;;10127128;29;20084;-88
2023/04/22 11:10:39;;;;;;;1.00;0.60;;;;;;;;;;10111837;29;20052;-88
2023/04/22 11:15:44;;;;;;;0.93;0.77;;;;;;;;;;10115789;29;20049;-87
2023/04/22 11:20:49;;;;;;;0.63;0.50;;;;;;;;;;10115673;29;20086;-87
2023/04/22 11:25:59;;;;;;;1.17;0.80;;;;;;;;;;10125973;29;20147;-87
2023/04/22 11:31:04;;;;;;;1.42;0.80;;;;;;;;;;10109373;29;20074;-86
2023/04/22 11:36:11;;;;;;;1.55;0.95;;;;;;;;;;10126078;29;20087;-87
2023/04/22 11:41:21;;;;;;;0.80;0.80;;;;;;;;;;10127462;29;20509;-87
2023/04/22 11:46:30;;;;;;;1.92;1.15;;;;;;;;;;10109155;29;20509;-87
2023/04/22 11:51:33;;;;;;;3.35;1.17;;;;;;;;;;10125328;29;20084;-87
2023/04/22 11:56:39;;;;;;;1.90;1.00;;;;;;;;;;10108877;29;20157;-87
2023/04/22 12:01:43;;;;;;;1.25;1.00;;;;;;;;;;10136248;23;20067;-86
2023/04/22 12:06:47;;;;;;;1.00;0.90;;;;;;;;;;10121893;29;20057;-86
2023/04/22 12:11:52;;;;;;;0.88;0.70;;;;;;;;;;10108985;29;20052;-85
2023/04/22 12:16:56;;;;;;;1.60;0.75;;;;;;;;;;10102290;29;20147;-85
2023/04/22 12:21:59;;;;;;;3.20;0.70;;;;;;;;;;10106885;29;20108;-85
2023/04/22 12:27:04;;;;;;;2.35;0.85;;;;;;;;;;10117378;29;20074;-86
2023/04/22 12:32:08;;;;;;;1.03;0.43;;;;;;;;;;10114318;29;20060;-86
2023/04/22 12:37:11;;;;;;;2.00;0.50;;;;;;;;;;10122467;29;20068;-87
2023/04/22 12:42:18;;;;;;;1.00;0.80;;;;;;;;;;10131906;29;20056;-86
2023/04/22 12:47:22;;;;;;;1.45;0.95;;;;;;;;;;10111905;29;20052;-86
2023/04/22 12:52:25;;;;;;;0.80;0.50;;;;;;;;;;10126712;29;20076;-86
2023/04/22 12:57:30;;;;;;;2.63;0.52;;;;;;;;;;10134008;29;20048;-86
2023/04/22 13:02:33;;;;;;;1.15;0.88;;;;;;;;;;10117151;29;20059;-86
2023/04/22 13:07:37;;;;;;;2.35;0.80;;;;;;;;;;10122010;29;20056;-86
2023/04/22 13:12:42;;;;;;;2.50;0.93;;;;;;;;;;10139310;29;20163;-86
2023/04/22 13:17:46;;;;;;;0.85;0.60;;;;;;;;;;10118204;29;20052;-86
2023/04/22 13:22:49;;;;;;;1.85;0.68;;;;;;;;;;10115388;29;20477;-86
2023/04/22 13:27:55;;;;;;;0.57;0.50;;;;;;;;;;10138484;29;20052;-86
2023/04/22 13:32:59;;;;;;;0.65;0.50;;;;;;;;;;10142934;29;20071;-86
2023/04/22 13:38:04;;;;;;;0.70;0.50;;;;;;;;;;10124518;29;20063;-85
2023/04/22 13:43:09;;;;;;;1.20;0.50;;;;;;;;;;10105894;29;20056;-85
2023/04/22 13:48:13;;;;;;;2.72;0.80;;;;;;;;;;10132144;29;20060;-85
2023/04/22 13:53:17;;;;;;;0.82;0.52;;;;;;;;;;10127702;29;20086;-85
2023/04/22 13:58:22;;;;;;;3.35;0.93;;;;;;;;;;10124202;29;20056;-86
2023/04/22 14:03:27;;;;;;;2.67;1.10;;;;;;;;;;10137568;29;20108;-85
2023/04/22 14:08:30;;;;;;;1.95;0.70;;;;;;;;;;10111239;29;20417;-85
2023/04/22 14:13:35;;;;;;;0.90;0.73;;;;;;;;;;10129731;29;20100;-85
2023/04/22 14:18:39;;;;;;;2.43;1.17;;;;;;;;;;10118067;29;20506;-84
2023/04/22 14:23:43;;;;;;;1.00;0.80;;;;;;;;;;10126943;29;20140;-85
2023/04/22 14:28:48;;;;;;;2.13;1.00;;;;;;;;;;10129325;29;20072;-87
2023/04/22 14:33:52;;;;;;;1.52;0.95;;;;;;;;;;10116604;29;20091;-88
2023/04/22 14:38:55;;;;;;;0.80;0.60;;;;;;;;;;10111773;29;20061;-88
2023/04/22 14:44:00;;;;;;;0.77;0.55;;;;;;;;;;10133468;29;20132;-88
2023/04/22 14:49:03;;;;;;;1.80;0.65;;;;;;;;;;10130171;29;20105;-88
2023/04/22 14:54:07;;;;;;;1.05;0.70;;;;;;;;;;10120273;29;20506;-87
2023/04/22 14:59:11;;;;;;;1.23;0.90;;;;;;;;;;10121154;29;20116;-88
2023/04/22 15:04:17;;;;;;;1.55;0.95;;;;;;;;;;10075110;29;20067;-88
2023/04/22 15:09:21;;;;;;;;;;;;;;;;;;10066823;29;20139;-88
2023/04/22 15:14:27;;;;;;;2.15;0.80;;;;;;;;;;10058522;29;19924;-88
2023/04/22 15:19:31;;;;;;;0.80;0.60;;;;;;;;;;10079118;29;20064;-87
2023/04/22 15:24:34;;;;;;;1.88;0.85;;;;;;;;;;10071299;29;20507;-87
2023/04/22 15:29:43;;;;;;;1.30;0.68;;;;;;;;;;10068577;29;20096;-88
2023/04/22 15:34:47;;;;;;;1.13;0.80;;;;;;;;;;10077622;29;20057;-88
2023/04/22 15:39:50;;;;;;;1.25;0.68;;;;;;;;;;10082029;29;20491;-87
2023/04/22 15:44:55;;;;;;;1.63;1.10;;;;;;;;;;10098160;29;20092;-89
2023/04/22 15:50:05;;;;;;;1.40;0.77;;;;;;;;;;10085663;29;20049;-89
2023/04/22 15:55:09;;;;;;;1.70;0.70;;;;;;;;;;10069155;29;20072;-89
2023/04/22 16:00:15;;;;;;;1.00;0.43;;;;;;;;;;10089284;29;20059;-88
2023/04/22 16:05:19;;;;;;;;;;;;;;;;;;10125050;29;20536;-88
2023/04/22 16:10:25;;;;;;;0.98;0.60;;;;;;;;;;10131711;29;20405;-89
2023/04/22 16:15:29;;;;;;;1.60;0.70;;;;;;;;;;10116766;29;20136;-89
2023/04/22 16:20:34;;;;;;;1.02;0.68;;;;;;;;;;10124882;29;20067;-89
2023/04/22 16:25:38;;;;;;;1.52;1.00;;;;;;;;;;10134466;29;20582;-89
2023/04/22 16:30:42;;;;;;;2.75;0.60;;;;;;;;;;10124582;29;20069;-88
2023/04/22 16:35:46;;;;;;;1.52;0.90;;;;;;;;;;10108717;29;20052;-89
2023/04/22 16:40:52;;;;;;;2.03;0.77;;;;;;;;;;10118122;29;20473;-90
2023/04/22 16:45:57;;;;;;;1.63;0.80;;;;;;;;;;10104789;29;20125;-89
2023/04/22 16:51:01;;;;;;;1.37;0.90;;;;;;;;;;10114811;29;20052;-89
2023/04/22 16:56:05;;;;;;;1.33;0.75;;;;;;;;;;10113035;29;20143;-89
2023/04/22 17:01:10;;;;;;;2.35;1.10;;;;;;;;;;10092572;29;20053;-89
2023/04/22 17:06:13;;;;;;;1.02;0.63;;;;;;;;;;10143913;29;20072;-89
2023/04/22 17:11:17;;;;;;;1.27;0.80;;;;;;;;;;10125594;29;20063;-89
2023/04/22 17:16:22;;;;;;;1.30;0.80;;;;;;;;;;10131318;29;20063;-89
2023/04/22 17:21:26;;;;;;;1.23;0.82;;;;;;;;;;10128476;29;20694;-89
2023/04/22 17:26:30;;;;;;;1.85;0.68;;;;;;;;;;10136800;29;20570;-89
2023/04/22 17:31:35;;;;;;;2.25;0.70;;;;;;;;;;10148826;29;20074;-90
2023/04/22 17:36:39;;;;;;;1.13;0.60;;;;;;;;;;10147163;29;20432;-89
2023/04/22 17:41:43;;;;;;;1.48;0.70;;;;;;;;;;10086199;29;20060;-89
2023/04/22 17:46:48;;;;;;;1.48;0.88;;;;;;;;;;10090270;29;20053;-89
2023/04/22 17:51:51;;;;;;;2.17;1.30;;;;;;;;;;10136032;29;20048;-88
2023/04/22 17:56:56;;;;;;;2.45;1.52;;;;;;;;;;10097550;29;20502;-89
2023/04/22 18:02:01;;;;;;;4.30;1.40;;;;;;;;;;10100325;29;20080;-89
2023/04/22 18:07:04;;;;;;;2.08;1.33;;;;;;;;;;10113689;29;20112;-89
2023/04/22 18:12:08;;;;;;;2.78;1.63;;;;;;;;;;10113749;29;20108;-89
2023/04/22 18:17:13;;;;;;;1.92;1.10;;;;;;;;;;10098815;29;20139;-89
2023/04/22 18:22:17;;;;;;;2.08;1.30;;;;;;;;;;10114047;29;20052;-89
2023/04/22 18:27:20;;;;;;;1.65;1.00;;;;;;;;;;10112538;29;20521;-88
2023/04/22 18:32:25;;;;;;;5.43;1.83;;;;;;;;;;10129866;29;20063;-89
2023/04/22 18:37:29;;;;;;;2.95;1.42;;;;;;;;;;10110945;29;20071;-88
2023/04/22 18:42:33;;;;;;;3.67;1.70;;;;;;;;;;10133540;29;20061;-88
2023/04/22 18:47:37;;;;;;;1.60;0.95;;;;;;;;;;10111695;29;20392;-88
2023/04/22 18:52:42;;;;;;;1.63;1.10;;;;;;;;;;10133324;29;20540;-89
2023/04/22 18:57:45;;;;;;;2.20;0.95;;;;;;;;;;10129969;29;20044;-89
2023/04/22 19:02:51;;;;;;;1.98;1.10;;;;;;;;;;10124653;29;20116;-89
2023/04/22 19:07:55;;;;;;;1.75;1.13;;;;;;;;;;10104466;29;20076;-89
2023/04/22 19:12:59;;;;;;;2.13;1.35;;;;;;;;;;10110998;29;20489;-89
2023/04/22 19:18:04;;;;;;;1.17;0.90;;;;;;;;;;10110835;29;20052;-89
2023/04/22 19:23:07;;;;;;;0.93;0.80;;;;;;;;;;10110699;29;20526;-88
2023/04/22 19:28:11;;;;;;;0.73;0.60;;;;;;;;;;10135585;29;20060;-89
2023/04/22 19:33:16;;;;;;;1.15;0.70;;;;;;;;;;10129737;29;20100;-89
2023/04/22 19:38:21;;;;;;;1.90;0.80;;;;;;;;;;10146123;29;20545;-89
2023/04/22 19:43:25;;;;;;;1.17;0.60;;;;;;;;;;10121910;29;20048;-89
2023/04/22 19:48:30;;;;;;;1.17;0.70;;;;;;;;;;10118915;29;20063;-89
2023/04/22 19:53:34;;;;;;;1.33;0.60;;;;;;;;;;10139041;29;20127;-89
2023/04/22 19:58:39;;;;;;;0.40;0.40;;;;;;;;;;10118088;29;20059;-89
2023/04/22 20:03:45;;;;;;;1.30;1.00;;;;;;;;;;10118298;29;20143;-89
2023/04/22 20:08:53;;;;;;;1.52;1.00;;;;;;;;;;10117967;29;20082;-89
2023/04/22 20:13:56;;;;;;;1.35;1.00;;;;;;;;;;10118354;29;20139;-89
2023/04/22 20:19:02;;;;;;;0.85;0.60;;;;;;;;;;10134112;29;20633;-89
2023/04/22 20:24:06;;;;;;;1.30;0.77;;;;;;;;;;10117727;29;20053;-89
2023/04/22 20:29:10;;;;;;;0.90;0.80;;;;;;;;;;10117499;29;20052;-88
2023/04/22 20:34:15;;;;;;;0.75;0.75;;;;;;;;;;10134080;29;20849;-89
2023/04/22 20:39:20;;;;;;;1.02;0.77;;;;;;;;;;10117258;29;20048;-88
2023/04/22 20:44:23;;;;;;;0.95;0.80;;;;;;;;;;10116571;29;20138;-89
2023/04/22 20:49:28;;;;;;;1.17;0.90;;;;;;;;;;10132597;29;20044;-88
2023/04/22 20:54:32;;;;;;;1.00;0.70;;;;;;;;;;10132183;29;20056;-89
2023/04/22 20:59:36;;;;;;;1.55;0.68;;;;;;;;;;10116028;29;20491;-88
2023/04/22 21:04:43;;;;;;;1.20;0.90;;;;;;;;;;10116130;29;20080;-89
2023/04/22 21:09:46;;;;;;;1.48;1.10;;;;;;;;;;10115461;29;20135;-89
2023/04/22 21:14:50;;;;;;;2.67;1.23;;;;;;;;;;10116897;29;20060;-89
2023/04/22 21:19:58;;;;;;;1.70;1.50;;;;;;;;;;10116613;29;20045;-89
2023/04/22 21:25:03;;;;;;;1.85;1.30;;;;;;;;;;10125473;29;20055;-89
2023/04/22 21:30:08;;;;;;;2.10;1.57;;;;;;;;;;10115185;29;20104;-89
2023/04/22 21:35:13;;;;;;;1.20;1.00;;;;;;;;;;10115491;29;20136;-89
2023/04/22 21:40:17;;;;;;;0.80;0.70;;;;;;;;;;10124337;29;20335;-89
2023/04/22 21:45:23;;;;;;;1.58;1.30;;;;;;;;;;10121301;29;20247;-89
2023/04/22 21:50:31;;;;;;;1.30;1.13;;;;;;;;;;10123948;29;20052;-89
2023/04/22 21:55:34;;;;;;;1.83;1.55;;;;;;;;;;10115102;29;20100;-89
2023/04/22 22:00:38;;;;;;;1.17;0.75;;;;;;;;;;10132662;29;20048;-89
2023/04/22 22:05:43;;;;;;;2.28;1.40;;;;;;;;;;10130270;29;20048;-89
2023/04/22 22:10:47;;;;;;;2.22;1.70;;;;;;;;;;10115745;29;20052;-90
2023/04/22 22:15:53;;;;;;;0.93;0.90;;;;;;;;;;10113533;29;20449;-89
2023/04/22 22:20:59;;;;;;;0.68;0.68;;;;;;;;;;10104035;29;20052;-89
2023/04/22 22:26:03;;;;;;;1.50;0.88;;;;;;;;;;10106659;29;20040;-89
2023/04/22 22:31:06;;;;;;;0.70;0.70;;;;;;;;;;10090153;29;20053;-90
2023/04/22 22:36:11;;;;;;;0.90;0.60;;;;;;;;;;10070714;29;20042;-90
2023/04/22 22:41:15;;;;;;;0.77;0.70;;;;;;;;;;10050708;29;20420;-90
2023/04/22 22:46:19;;;;;;;0.70;0.70;;;;;;;;;;10098568;29;20052;-90
2023/04/22 22:51:24;;;;;;;0.80;0.70;;;;;;;;;;10113652;29;20514;-90
2023/04/22 22:56:27;;;;;;;1.25;0.95;;;;;;;;;;10111254;29;20451;-90
2023/04/22 23:01:31;;;;;;;0.60;0.60;;;;;;;;;;10109705;29;20283;-90
2023/04/22 23:06:36;;;;;;;1.23;0.80;;;;;;;;;;10127511;29;20044;-90
2023/04/22 23:11:39;;;;;;;0.85;0.70;;;;;;;;;;10119938;29;20056;-90
2023/04/22 23:16:43;;;;;;;0.68;0.68;;;;;;;;;;10125529;29;20056;-90
2023/04/22 23:21:48;;;;;;;0.80;0.57;;;;;;;;;;10086667;29;20048;-91
2023/04/22 23:26:52;;;;;;;0.85;0.70;;;;;;;;;;10069184;29;20057;-90
2023/04/22 23:31:56;;;;;;;0.70;0.70;;;;;;;;;;10070451;29;20140;-90
2023/04/22 23:37:04;;;;;;;0.85;0.73;;;;;;;;;;10071223;29;20057;-90
2023/04/22 23:42:07;;;;;;;0.73;0.73;;;;;;;;;;10074528;29;20076;-90
2023/04/22 23:47:11;;;;;;;0.80;0.80;;;;;;;;;;10070981;29;20064;-90
2023/04/22 23:52:17;;;;;;;1.40;0.82;;;;;;;;;;10072571;29;20155;-90
2023/04/22 23:57:21;;;;;;;1.00;0.90;;;;;;;;;;10071145;29;20052;-90
